Time;durP1;ratioP1;P1;durP2;ratioP2;P2;SDS_P1;SDS_P2;PMS_P1;PMS_P2;Temp;Humidity;BMP_temperature;BMP_pressure;BME280_temperature;BME280_humidity;BME280_pressure;Samples;Min_cycle;Max_cycle;Signal;HPM_P1;HPM_P2
2022/01/15 00:00:00;;;;;;;64.50;44.15;;;;;;;3.65;100.00;103276.22;1026900;28;20298;-78
2022/01/15 00:00:36;;;;;;;64.30;43.22;;;;;;;3.66;100.00;103277.88;1028198;28;20274;-78
2022/01/15 00:01:08;;;;;;;67.95;43.20;;;;;;;3.67;100.00;103269.03;1023766;29;20357;-78
2022/01/15 00:01:39;;;;;;;56.08;40.35;;;;;;;3.69;100.00;103272.41;1022340;29;20686;-77
2022/01/15 00:02:11;;;;;;;65.53;41.67;;;;;;;3.71;100.00;103267.84;1023815;29;20647;-77
2022/01/15 00:02:43;;;;;;;55.63;41.60;;;;;;;3.73;100.00;103268.56;1024740;28;20306;-77
2022/01/15 00:03:15;;;;;;;57.55;40.92;;;;;;;3.74;100.00;103270.25;1022564;29;20278;-78
2022/01/15 00:03:46;;;;;;;77.68;43.75;;;;;;;3.73;100.00;103269.41;1019896;29;20348;-77
2022/01/15 00:04:18;;;;;;;63.65;41.78;;;;;;;3.72;100.00;103262.47;1020084;29;20286;-77
2022/01/15 00:04:53;;;;;;;62.63;43.95;;;;;;;3.71;100.00;103262.59;1021070;29;20668;-77
2022/01/15 00:05:25;;;;;;;78.60;45.60;;;;;;;3.69;100.00;103264.50;1024390;29;20628;-78
2022/01/15 00:05:56;;;;;;;93.28;46.88;;;;;;;3.66;100.00;103267.34;1024195;28;20286;-77
2022/01/15 00:06:28;;;;;;;92.72;47.97;;;;;;;3.65;100.00;103263.03;1024277;29;20667;-78
2022/01/15 00:06:59;;;;;;;73.15;46.75;;;;;;;3.63;100.00;103257.03;1024139;29;20282;-77
2022/01/15 00:07:31;;;;;;;77.13;45.38;;;;;;;3.65;100.00;103263.88;1020033;29;20315;-77
2022/01/15 00:08:04;;;;;;;82.88;44.42;;;;;;;3.64;100.00;103264.00;1019959;29;20283;-77
2022/01/15 00:08:35;;;;;;;85.50;48.03;;;;;;;3.60;100.00;103265.16;1020057;29;20279;-77
2022/01/15 00:09:07;;;;;;;78.38;45.47;;;;;;;3.59;100.00;103263.47;1019888;29;20287;-77
2022/01/15 00:09:39;;;;;;;71.13;42.60;;;;;;;3.62;100.00;103268.53;1024019;28;20643;-77
2022/01/15 00:10:11;;;;;;;64.65;44.95;;;;;;;3.62;100.00;103255.34;1023849;29;20314;-77
2022/01/15 00:10:42;;;;;;;65.57;43.55;;;;;;;3.65;100.00;103257.75;1024116;29;20282;-77
2022/01/15 00:11:14;;;;;;;60.80;43.35;;;;;;;3.63;100.00;103260.50;1020046;29;20309;-77
2022/01/15 00:11:45;;;;;;;63.88;43.05;;;;;;;3.62;100.00;103255.34;1019707;29;20287;-77
2022/01/15 00:12:17;;;;;;;92.57;44.97;;;;;;;3.63;100.00;103263.16;1020056;29;20279;-78
2022/01/15 00:12:48;;;;;;;77.60;43.58;;;;;;;3.64;100.00;103264.00;1022798;28;20326;-77
2022/01/15 00:13:40;;;;;;;81.97;43.42;;;;;;;3.63;100.00;103262.31;1027428;28;20273;-77
2022/01/15 00:14:15;;;;;;;60.20;39.15;;;;;;;3.66;100.00;103256.81;1024093;29;20647;-77
2022/01/15 00:14:46;;;;;;;63.47;40.72;;;;;;;3.70;100.00;103255.63;1024186;29;20279;-77
2022/01/15 00:15:25;;;;;;;91.78;43.25;;;;;;;3.72;100.00;103257.19;1024047;29;20290;-77
2022/01/15 00:16:44;;;;;;;70.82;42.00;;;;;;;3.71;100.00;103254.69;1025131;28;20667;-77
2022/01/15 00:17:20;;;;;;;71.43;35.90;;;;;;;3.67;100.00;103261.13;1021353;29;20306;-77
2022/01/15 00:17:56;;;;;;;83.57;36.60;;;;;;;3.64;100.00;103258.72;1023739;29;20294;-77
2022/01/15 00:18:41;;;;;;;50.35;32.85;;;;;;;3.63;100.00;103259.66;1024140;29;20303;-77
2022/01/15 00:19:15;;;;;;;50.67;29.67;;;;;;;3.69;100.00;103260.06;1024665;28;20711;-77
2022/01/15 00:19:47;;;;;;;50.47;33.20;;;;;;;3.70;100.00;103258.25;1024975;28;20636;-77
2022/01/15 00:20:20;;;;;;;56.90;34.00;;;;;;;3.73;100.00;103258.88;1027380;28;20758;-77
2022/01/15 00:20:51;;;;;;;48.83;32.38;;;;;;;3.77;100.00;103248.09;1027395;28;20290;-77
2022/01/15 00:21:23;;;;;;;52.53;33.97;;;;;;;3.76;100.00;103255.19;1024878;28;20292;-77
2022/01/15 00:21:54;;;;;;;59.38;36.20;;;;;;;3.76;100.00;103252.53;1027960;28;20289;-77
2022/01/15 00:22:26;;;;;;;58.45;36.05;;;;;;;3.75;100.00;103250.00;1027872;28;20762;-77
2022/01/15 00:23:02;;;;;;;56.92;36.17;;;;;;;3.71;100.00;103249.41;1027437;28;20274;-77
2022/01/15 00:23:34;;;;;;;60.10;36.70;;;;;;;3.65;100.00;103244.59;1025006;28;20690;-77
2022/01/15 00:24:06;;;;;;;58.13;36.15;;;;;;;3.64;100.00;103248.19;1023906;29;20286;-77
2022/01/15 00:24:38;;;;;;;51.00;34.65;;;;;;;3.64;100.00;103242.91;1023456;29;20361;-77
2022/01/15 00:25:11;;;;;;;55.70;36.80;;;;;;;3.63;100.00;103249.13;1020009;29;20288;-77
2022/01/15 00:25:43;;;;;;;50.38;34.42;;;;;;;3.61;100.00;103245.75;1020632;29;20283;-77
2022/01/15 00:26:14;;;;;;;52.75;36.60;;;;;;;3.63;100.00;103246.50;1023913;29;20652;-77
2022/01/15 00:26:46;;;;;;;56.10;35.15;;;;;;;3.63;100.00;103247.34;1023903;28;20307;-77
2022/01/15 00:27:17;;;;;;;52.92;35.30;;;;;;;3.61;100.00;103237.84;1024320;29;20278;-77
2022/01/15 00:27:50;;;;;;;69.25;37.97;;;;;;;3.63;100.00;103239.44;1024099;29;20289;-77
2022/01/15 00:28:21;;;;;;;53.33;36.00;;;;;;;3.64;100.00;103233.19;1027705;28;20824;-77
2022/01/15 00:28:53;;;;;;;60.58;37.15;;;;;;;3.62;100.00;103234.28;1027838;28;20282;-77
2022/01/15 00:29:25;;;;;;;53.47;35.85;;;;;;;3.60;100.00;103237.03;1023835;29;20286;-77
2022/01/15 00:29:56;;;;;;;51.13;34.45;;;;;;;3.65;100.00;103240.16;1024559;28;20291;-77
2022/01/15 00:30:28;;;;;;;69.47;38.13;;;;;;;3.75;100.00;103235.03;1027463;28;20290;-77
2022/01/15 00:31:00;;;;;;;64.90;38.42;;;;;;;3.78;100.00;103233.97;1024625;28;20279;-77
2022/01/15 00:31:34;;;;;;;63.92;36.95;;;;;;;3.81;100.00;103241.66;1027116;28;20809;-77
2022/01/15 00:32:07;;;;;;;61.90;37.13;;;;;;;3.82;100.00;103244.16;1023883;29;20279;-77
2022/01/15 00:32:41;;;;;;;64.22;36.20;;;;;;;3.91;100.00;103245.31;1021139;29;20283;-77
2022/01/15 00:33:12;;;;;;;60.78;35.50;;;;;;;3.99;100.00;103243.78;1023462;29;20286;-77
2022/01/15 00:33:44;;;;;;;61.35;38.08;;;;;;;3.98;100.00;103242.09;1024751;28;20340;-77
2022/01/15 00:34:16;;;;;;;55.45;35.95;;;;;;;3.97;100.00;103244.84;1028759;28;20293;-76
2022/01/15 00:34:47;;;;;;;53.60;35.40;;;;;;;3.91;100.00;103245.31;1023566;29;20287;-77
2022/01/15 00:35:20;;;;;;;55.30;35.95;;;;;;;3.91;100.00;103248.78;1023812;29;20771;-77
2022/01/15 00:35:52;;;;;;;66.57;34.35;;;;;;;3.85;100.00;103246.63;1023988;29;20675;-77
2022/01/15 00:36:23;;;;;;;54.67;35.40;;;;;;;3.84;100.00;103250.19;1024180;28;20289;-77
2022/01/15 00:36:55;;;;;;;49.55;33.78;;;;;;;3.81;100.00;103239.84;1027972;28;20289;-77
2022/01/15 00:37:31;;;;;;;54.90;34.55;;;;;;;3.85;100.00;103246.63;1028308;28;20274;-77
2022/01/15 00:38:02;;;;;;;50.28;35.88;;;;;;;3.82;100.00;103236.25;1031661;28;20411;-77
2022/01/15 00:38:34;;;;;;;53.17;34.67;;;;;;;3.76;100.00;103244.63;1028519;28;20292;-77
2022/01/15 00:39:05;;;;;;;51.25;33.92;;;;;;;3.73;100.00;103236.94;1021034;28;20279;-77
2022/01/15 00:39:37;;;;;;;47.72;32.95;;;;;;;3.73;100.00;103239.59;1027663;28;20290;-77
2022/01/15 00:40:14;;;;;;;53.55;35.45;;;;;;;3.69;100.00;103235.50;1027894;28;20289;-77
2022/01/15 00:40:46;;;;;;;47.75;34.28;;;;;;;3.68;100.00;103239.09;1024882;28;20289;-77
2022/01/15 00:41:18;;;;;;;56.47;35.17;;;;;;;3.67;100.00;103232.13;1023723;29;20283;-77
2022/01/15 00:41:49;;;;;;;52.72;35.65;;;;;;;3.65;100.00;103237.53;1022021;29;20673;-77
2022/01/15 00:42:21;;;;;;;53.05;33.63;;;;;;;3.66;100.00;103233.94;1020429;29;20643;-76
2022/01/15 00:42:52;;;;;;;51.20;34.38;;;;;;;3.67;100.00;103237.41;1024427;28;20330;-77
2022/01/15 00:43:24;;;;;;;55.15;34.05;;;;;;;3.67;100.00;103237.41;1027499;28;20623;-77
2022/01/15 00:43:55;;;;;;;49.47;34.50;;;;;;;3.66;100.00;103233.09;1028457;28;20306;-77
2022/01/15 00:44:27;;;;;;;59.78;35.78;;;;;;;3.60;100.00;103234.38;1023532;29;20825;-77
2022/01/15 00:45:01;;;;;;;62.05;36.53;;;;;;;3.62;100.00;103239.53;1023897;29;20354;-77
2022/01/15 00:45:33;;;;;;;70.20;36.75;;;;;;;3.67;100.00;103240.03;1019679;29;20293;-77
2022/01/15 00:46:05;;;;;;;57.88;36.70;;;;;;;3.82;100.00;103236.25;1020718;29;20307;-78
2022/01/15 00:46:37;;;;;;;56.85;36.63;;;;;;;3.88;100.00;103241.09;1023748;29;20358;-77
2022/01/15 00:47:10;;;;;;;57.92;36.92;;;;;;;3.96;100.00;103244.00;1016841;29;20315;-76
2022/01/15 00:47:42;;;;;;;55.13;34.97;;;;;;;3.98;100.00;103247.38;1019973;29;20295;-78
2022/01/15 00:48:14;;;;;;;63.45;38.25;;;;;;;3.98;100.00;103252.66;1019606;29;20299;-77
2022/01/15 00:48:45;;;;;;;56.05;37.47;;;;;;;3.83;100.00;103247.66;1020783;28;20286;-77
2022/01/15 00:49:17;;;;;;;55.53;36.63;;;;;;;3.78;100.00;103255.91;1023537;29;20814;-77
2022/01/15 00:49:49;;;;;;;57.58;37.47;;;;;;;3.83;100.00;103253.75;1023899;29;20291;-78
2022/01/15 00:50:20;;;;;;;54.33;36.13;;;;;;;3.80;100.00;103248.72;1023986;29;20301;-78
2022/01/15 00:50:53;;;;;;;56.83;38.88;;;;;;;3.79;100.00;103247.03;1023419;29;20783;-77
2022/01/15 00:51:25;;;;;;;57.33;39.45;;;;;;;3.73;100.00;103242.22;1023882;29;20279;-77
2022/01/15 00:51:57;;;;;;;58.70;41.22;;;;;;;3.74;100.00;103243.91;1023651;29;20290;-77
2022/01/15 00:52:28;;;;;;;53.63;39.90;;;;;;;3.71;100.00;103244.13;1024609;28;20767;-77
2022/01/15 00:53:00;;;;;;;62.28;41.78;;;;;;;3.69;100.00;103240.78;1026968;28;20290;-77
2022/01/15 00:53:31;;;;;;;55.20;40.03;;;;;;;3.68;100.00;103239.09;1024173;28;20349;-77
2022/01/15 00:54:03;;;;;;;62.13;40.92;;;;;;;3.67;100.00;103226.88;1023691;29;20647;-77
2022/01/15 00:54:34;;;;;;;56.47;41.25;;;;;;;3.65;100.00;103231.41;1023831;28;20283;-77
2022/01/15 00:55:08;;;;;;;54.38;40.63;;;;;;;3.63;100.00;103228.03;1027774;28;20784;-77
2022/01/15 00:55:40;;;;;;;61.40;42.08;;;;;;;3.65;100.00;103223.50;1028232;28;20289;-77
2022/01/15 00:56:11;;;;;;;64.28;41.78;;;;;;;3.63;100.00;103225.41;1027063;28;20662;-77
2022/01/15 00:56:43;;;;;;;69.63;43.42;;;;;;;3.61;100.00;103227.31;1023543;29;20282;-75
2022/01/15 00:57:14;;;;;;;55.70;39.97;;;;;;;3.60;100.00;103220.38;1024197;28;20670;-75
2022/01/15 00:57:46;;;;;;;62.58;43.58;;;;;;;3.63;100.00;103225.41;1027536;28;20280;-75
2022/01/15 00:58:17;;;;;;;65.15;43.00;;;;;;;3.61;100.00;103227.31;1027453;28;20277;-75
2022/01/15 00:58:52;;;;;;;66.72;44.42;;;;;;;3.60;100.00;103225.63;1027882;28;20348;-76
2022/01/15 00:59:23;;;;;;;68.03;44.00;;;;;;;3.63;100.00;103233.31;1028071;28;20274;-76
2022/01/15 00:59:55;;;;;;;63.45;42.53;;;;;;;3.63;100.00;103230.69;1025341;28;20310;-75
2022/01/15 01:00:26;;;;;;;66.05;40.45;;;;;;;3.60;100.00;103236.19;1023743;29;20741;-75
2022/01/15 01:00:58;;;;;;;64.85;42.00;;;;;;;3.67;100.00;103235.59;1023671;29;20773;-75
2022/01/15 01:01:30;;;;;;;66.18;41.70;;;;;;;3.70;100.00;103240.66;1024513;28;20804;-75
2022/01/15 01:02:02;;;;;;;63.67;44.15;;;;;;;3.74;100.00;103238.63;1023723;28;20294;-75
2022/01/15 01:02:34;;;;;;;63.83;42.45;;;;;;;3.86;100.00;103236.91;1026880;28;20282;-75
2022/01/15 01:03:06;;;;;;;63.28;42.88;;;;;;;3.81;100.00;103244.28;1024458;28;20338;-75
2022/01/15 01:03:37;;;;;;;61.58;41.28;;;;;;;3.72;100.00;103243.19;1024072;28;20278;-75
2022/01/15 01:04:09;;;;;;;65.07;40.78;;;;;;;3.65;100.00;103239.31;1023795;29;20293;-75
2022/01/15 01:04:40;;;;;;;60.60;39.35;;;;;;;3.61;100.00;103237.84;1022745;29;20683;-75
2022/01/15 01:05:12;;;;;;;64.40;40.60;;;;;;;3.66;100.00;103235.72;1020227;29;20294;-75
2022/01/15 01:05:44;;;;;;;51.50;38.03;;;;;;;3.66;100.00;103225.19;1019751;29;20287;-75
2022/01/15 01:06:16;;;;;;;59.47;39.22;;;;;;;3.63;100.00;103228.03;1020261;29;20279;-77
2022/01/15 01:06:48;;;;;;;56.08;39.45;;;;;;;3.62;100.00;103221.09;1023682;29;20295;-77
2022/01/15 01:07:19;;;;;;;52.17;38.88;;;;;;;3.58;100.00;103217.84;1024145;28;20282;-77
2022/01/15 01:07:51;;;;;;;56.22;38.30;;;;;;;3.63;100.00;103217.50;1027172;28;20297;-77
2022/01/15 01:08:22;;;;;;;63.03;40.78;;;;;;;3.59;100.00;103210.78;1023521;29;20286;-75
2022/01/15 01:08:54;;;;;;;54.28;38.25;;;;;;;3.59;100.00;103203.72;1023785;29;20898;-75
2022/01/15 01:09:33;;;;;;;62.92;41.30;;;;;;;3.57;100.00;103202.16;1023600;29;20341;-75
2022/01/15 01:10:58;;;;;;;64.07;39.45;;;;;;;3.56;100.00;103203.06;1022733;29;20293;-75
2022/01/15 01:11:42;;;;;;;57.47;37.67;;;;;;;3.58;100.00;103203.81;1023807;29;20289;-75
2022/01/15 01:20:07;;;;;;;44.88;28.40;;;;;;;3.61;100.00;103203.59;1019580;29;20290;-76
2022/01/15 01:22:57;;;;;;;48.38;28.95;;;;;;;3.59;100.00;103181.78;1016251;29;20294;-77
2022/01/15 01:23:29;;;;;;;41.60;28.73;;;;;;;3.60;100.00;103179.03;1019409;29;20501;-76
2022/01/15 01:24:01;;;;;;;52.42;30.23;;;;;;;3.62;100.00;103181.56;1019983;29;20283;-77
2022/01/15 01:24:33;;;;;;;42.42;28.83;;;;;;;3.56;100.00;103169.69;1019946;29;20306;-76
2022/01/15 01:25:05;;;;;;;44.70;29.40;;;;;;;3.64;100.00;103180.50;1020425;29;20624;-77
2022/01/15 01:25:41;;;;;;;52.17;31.58;;;;;;;3.68;100.00;103181.09;1019680;29;20284;-77
2022/01/15 01:26:27;;;;;;;49.90;30.48;;;;;;;3.72;100.00;103179.91;1019443;29;20299;-77
2022/01/15 01:27:15;;;;;;;46.92;28.48;;;;;;;3.86;100.00;103189.44;1019647;29;20763;-77
2022/01/15 01:27:51;;;;;;;43.65;28.20;;;;;;;3.82;100.00;103193.25;1023874;29;20285;-77
2022/01/15 01:28:36;;;;;;;47.88;28.30;;;;;;;3.79;100.00;103186.41;1023663;29;20294;-77
2022/01/15 01:30:06;;;;;;;41.83;27.55;;;;;;;3.88;100.00;103201.56;1023919;29;20287;-77
2022/01/15 01:30:12;;;;;;;46.92;27.02;;;;;;;3.86;100.00;103198.19;1013598;29;20315;-77
2022/01/15 01:30:57;;;;;;;44.63;28.52;;;;;;;3.85;100.00;103204.44;1023616;29;20283;-77
2022/01/15 01:31:38;;;;;;;43.75;27.85;;;;;;;3.68;100.00;103202.19;1023503;28;20663;-77
2022/01/15 01:32:30;;;;;;;41.60;25.88;;;;;;;3.77;100.00;103198.88;1023625;29;20285;-76
2022/01/15 01:33:17;;;;;;;47.47;27.75;;;;;;;3.71;100.00;103196.69;1023950;29;20282;-77
2022/01/15 01:33:53;;;;;;;39.45;26.48;;;;;;;3.70;100.00;103197.63;1023881;29;20286;-77
2022/01/15 01:34:27;;;;;;;48.03;28.25;;;;;;;3.66;100.00;103191.75;1023808;29;20286;-77
2022/01/15 01:35:06;;;;;;;49.00;29.02;;;;;;;3.71;100.00;103186.16;1018235;29;20299;-77
2022/01/15 01:35:42;;;;;;;39.50;27.15;;;;;;;3.64;100.00;103184.94;1019445;29;20286;-77
2022/01/15 01:36:24;;;;;;;47.72;27.80;;;;;;;3.61;100.00;103185.16;1019094;29;20280;-77
2022/01/15 01:37:19;;;;;;;41.72;25.63;;;;;;;3.60;100.00;103183.47;1023205;29;20283;-77
2022/01/15 01:37:52;;;;;;;42.17;26.67;;;;;;;3.61;100.00;103178.09;1020043;29;20287;-78
2022/01/15 01:38:30;;;;;;;45.70;28.13;;;;;;;3.62;100.00;103186.84;1021967;29;20297;-77
2022/01/15 01:39:06;;;;;;;47.60;27.85;;;;;;;3.62;100.00;103181.56;1023915;29;20275;-77
2022/01/15 01:39:45;;;;;;;43.47;29.73;;;;;;;3.60;100.00;103183.47;1023712;29;20279;-77
2022/01/15 01:40:27;;;;;;;47.13;29.17;;;;;;;3.78;100.00;103187.38;1015631;29;20583;-77
2022/01/15 01:41:00;;;;;;;47.35;29.60;;;;;;;3.75;100.00;103181.47;1015500;29;20294;-77
2022/01/15 01:41:36;;;;;;;49.72;30.30;;;;;;;3.84;100.00;103186.94;1015052;29;20325;-77
2022/01/15 01:43:08;;;;;;;53.00;30.38;;;;;;;3.79;100.00;103183.78;1019624;29;20284;-77
2022/01/15 01:43:45;;;;;;;43.38;28.45;;;;;;;3.78;100.00;103182.09;1018192;29;20275;-77
2022/01/15 01:44:22;;;;;;;45.00;29.60;;;;;;;3.82;100.00;103178.25;1020527;29;20294;-77
2022/01/15 01:45:09;;;;;;;45.88;29.13;;;;;;;3.80;100.00;103181.97;1023824;29;20655;-76
2022/01/15 01:45:45;;;;;;;46.40;28.98;;;;;;;3.79;100.00;103180.28;1023678;29;20282;-77
2022/01/15 01:46:31;;;;;;;46.78;31.00;;;;;;;3.69;100.00;103173.09;1023438;29;20373;-75
2022/01/15 01:47:06;;;;;;;47.15;27.77;;;;;;;3.71;100.00;103178.25;1019399;29;20432;-75
2022/01/15 01:48:11;;;;;;;45.08;28.77;;;;;;;3.66;100.00;103173.31;1019597;29;20303;-75
2022/01/15 01:48:43;;;;;;;46.45;28.80;;;;;;;3.67;100.00;103168.88;1022552;29;20287;-75
2022/01/15 01:49:15;;;;;;;47.00;28.00;;;;;;;3.65;100.00;103171.63;1019320;29;20647;-75
2022/01/15 01:49:46;;;;;;;44.78;28.13;;;;;;;3.63;100.00;103176.19;1015623;29;20668;-75
2022/01/15 01:50:28;;;;;;;48.63;29.25;;;;;;;3.66;100.00;103172.47;1015803;29;20290;-75
2022/01/15 01:51:00;;;;;;;41.80;27.35;;;;;;;3.64;100.00;103174.38;1016942;29;20283;-75
2022/01/15 01:51:35;;;;;;;51.00;29.67;;;;;;;3.56;100.00;103182.00;1015756;29;20307;-75
2022/01/15 01:52:06;;;;;;;50.90;28.48;;;;;;;3.51;100.00;103174.44;1015604;29;20283;-75
2022/01/15 01:52:38;;;;;;;46.28;29.05;;;;;;;3.48;100.00;103173.81;1015872;29;20286;-75
2022/01/15 01:53:10;;;;;;;45.88;28.83;;;;;;;3.56;100.00;103172.31;1012573;29;20296;-75
2022/01/15 01:53:41;;;;;;;48.13;29.90;;;;;;;3.60;100.00;103170.28;1011959;29;20291;-75
2022/01/15 01:54:18;;;;;;;50.00;30.63;;;;;;;3.52;100.00;103170.84;1011736;29;20648;-75
2022/01/15 01:54:50;;;;;;;41.70;26.83;;;;;;;3.58;100.00;103172.22;1012845;29;20285;-75
2022/01/15 01:55:23;;;;;;;46.42;29.67;;;;;;;3.56;100.00;103171.44;1012813;29;20281;-75
2022/01/15 01:55:54;;;;;;;45.75;28.35;;;;;;;3.50;100.00;103166.63;1014221;29;20303;-76
2022/01/15 01:56:26;;;;;;;45.42;29.75;;;;;;;3.53;100.00;103171.69;1011722;29;20289;-75
2022/01/15 01:56:58;;;;;;;45.78;28.73;;;;;;;3.51;100.00;103169.16;1011853;29;20284;-75
2022/01/15 01:57:29;;;;;;;49.63;29.98;;;;;;;3.53;100.00;103171.69;1011745;29;20284;-76
2022/01/15 01:58:01;;;;;;;44.03;29.63;;;;;;;3.53;100.00;103176.94;1012071;29;20292;-75
2022/01/15 01:58:33;;;;;;;44.90;30.00;;;;;;;3.52;100.00;103167.38;1016366;29;20291;-75
2022/01/15 01:59:05;;;;;;;47.63;29.80;;;;;;;3.53;100.00;103171.69;1019789;29;20294;-75
2022/01/15 01:59:37;;;;;;;43.00;30.05;;;;;;;3.52;100.00;103170.00;1015769;29;20276;-75
2022/01/15 02:00:12;;;;;;;48.42;29.35;;;;;;;3.52;100.00;103170.84;1015484;29;20290;-75
2022/01/15 02:00:44;;;;;;;44.75;28.73;;;;;;;3.53;100.00;103166.41;1015554;29;20311;-76
2022/01/15 02:01:16;;;;;;;51.58;31.55;;;;;;;3.52;100.00;103176.09;1016736;29;20288;-75
2022/01/15 02:01:47;;;;;;;49.83;31.40;;;;;;;3.56;100.00;103177.59;1015693;29;20759;-75
2022/01/15 02:02:19;;;;;;;46.50;30.60;;;;;;;3.55;100.00;103185.56;1017086;29;20367;-75
2022/01/15 02:02:53;;;;;;;47.60;31.15;;;;;;;3.55;100.00;103188.22;1019469;29;20378;-75
2022/01/15 02:03:24;;;;;;;48.22;30.65;;;;;;;3.56;100.00;103187.25;1020487;29;20625;-75
2022/01/15 02:03:56;;;;;;;48.40;29.58;;;;;;;3.51;100.00;103184.97;1019109;29;20288;-75
2022/01/15 02:04:27;;;;;;;46.28;30.27;;;;;;;3.56;100.00;103187.25;1015692;29;20790;-75
2022/01/15 02:04:59;;;;;;;47.55;32.17;;;;;;;3.49;100.00;103186.03;1015156;29;20287;-75
2022/01/15 02:05:30;;;;;;;55.88;33.13;;;;;;;3.44;100.00;103182.91;1015781;29;20288;-75
2022/01/15 02:06:02;;;;;;;59.67;34.05;;;;;;;3.47;100.00;103194.06;1015625;29;20280;-76
2022/01/15 02:06:37;;;;;;;50.28;34.10;;;;;;;3.43;100.00;103187.31;1016491;29;20292;-75
2022/01/15 02:07:08;;;;;;;50.15;34.45;;;;;;;3.56;100.00;103190.78;1023569;29;20310;-75
2022/01/15 02:07:41;;;;;;;60.88;36.80;;;;;;;3.51;100.00;103178.84;1019429;29;20279;-75
2022/01/15 02:08:12;;;;;;;58.60;37.30;;;;;;;3.53;100.00;103176.94;1019545;29;20621;-76
2022/01/15 02:08:45;;;;;;;50.30;34.60;;;;;;;3.53;100.00;103179.59;1018992;29;20287;-76
2022/01/15 02:09:20;;;;;;;51.47;35.70;;;;;;;3.54;100.00;103183.91;1015646;29;20280;-76
2022/01/15 02:09:53;;;;;;;50.35;33.33;;;;;;;3.52;100.00;103172.63;1015733;29;20630;-76
2022/01/15 02:10:24;;;;;;;47.05;34.33;;;;;;;3.51;100.00;103163.03;1016650;29;20294;-76
2022/01/15 02:10:57;;;;;;;50.90;35.03;;;;;;;3.53;100.00;103163.78;1020440;29;20633;-75
2022/01/15 02:11:29;;;;;;;53.53;35.65;;;;;;;3.51;100.00;103158.63;1018354;29;20287;-76
2022/01/15 02:12:00;;;;;;;49.22;33.55;;;;;;;3.49;100.00;103165.78;1016337;29;20280;-78
2022/01/15 02:12:32;;;;;;;53.63;35.88;;;;;;;3.49;100.00;103170.22;1020190;28;20283;-77
2022/01/15 02:13:08;;;;;;;48.55;34.83;;;;;;;3.49;100.00;103155.25;1028135;28;20789;-78
2022/01/15 02:13:42;;;;;;;50.72;34.70;;;;;;;3.53;100.00;103161.13;1027140;28;20662;-77
2022/01/15 02:14:29;;;;;;;51.30;34.00;;;;;;;3.51;100.00;103161.25;1023090;29;20291;-78
2022/01/15 02:15:15;;;;;;;53.65;32.15;;;;;;;3.56;100.00;103166.19;1020147;29;20286;-77
2022/01/15 02:15:46;;;;;;;48.75;30.52;;;;;;;3.52;100.00;103170.00;1018147;29;20284;-78
2022/01/15 02:16:18;;;;;;;60.15;34.42;;;;;;;3.62;100.00;103165.75;1023288;29;20787;-77
2022/01/15 02:16:49;;;;;;;49.25;33.58;;;;;;;3.56;100.00;103177.59;1025903;28;20395;-78
2022/01/15 02:17:22;;;;;;;54.75;34.75;;;;;;;3.56;100.00;103167.06;1027206;28;20290;-77
2022/01/15 02:17:54;;;;;;;49.53;33.38;;;;;;;3.61;100.00;103164.06;1027761;28;20296;-78
2022/01/15 02:18:27;;;;;;;47.58;32.63;;;;;;;3.58;100.00;103162.50;1027572;28;20683;-77
2022/01/15 02:18:58;;;;;;;55.63;35.97;;;;;;;3.57;100.00;103168.72;1027636;28;20636;-77
2022/01/15 02:19:43;;;;;;;54.17;36.10;;;;;;;3.63;100.00;103159.53;1027346;28;20286;-78
2022/01/15 02:24:00;;;;;;;51.55;28.88;;;;;;;3.49;100.00;103143.88;1026728;28;20369;-76
2022/01/15 02:24:31;;;;;;;49.08;29.67;;;;;;;3.49;100.00;103149.16;1027471;28;20100;-76
2022/01/15 02:25:03;;;;;;;44.92;26.77;;;;;;;3.53;100.00;103150.59;1027181;28;20690;-75
2022/01/15 02:25:52;;;;;;;44.22;29.52;;;;;;;3.49;100.00;103154.41;1027208;28;20397;-75
2022/01/15 02:26:25;;;;;;;40.08;26.88;;;;;;;3.48;100.00;103150.09;1023806;29;20794;-75
2022/01/15 02:26:56;;;;;;;49.85;27.92;;;;;;;3.55;100.00;103148.69;1027335;28;20282;-75
2022/01/15 02:27:28;;;;;;;43.22;25.83;;;;;;;3.48;100.00;103147.47;1026802;28;21165;-75
2022/01/15 02:27:59;;;;;;;47.78;27.65;;;;;;;3.41;100.00;103158.47;1023173;29;20278;-75
2022/01/15 02:28:36;;;;;;;45.83;26.25;;;;;;;3.56;100.00;103145.09;1023881;28;20286;-75
2022/01/15 02:29:08;;;;;;;51.08;28.73;;;;;;;3.55;100.00;103148.69;1023418;29;20278;-76
2022/01/15 02:29:40;;;;;;;47.17;29.48;;;;;;;3.48;100.00;103155.38;1019422;29;20378;-75
2022/01/15 02:30:12;;;;;;;50.65;27.92;;;;;;;3.47;100.00;103151.06;1020589;29;20290;-75
2022/01/15 02:30:44;;;;;;;49.38;30.48;;;;;;;3.54;100.00;103149.66;1020130;29;20648;-75
2022/01/15 02:31:16;;;;;;;46.40;30.63;;;;;;;3.53;100.00;103150.59;1023293;29;20499;-75
2022/01/15 02:31:48;;;;;;;44.22;27.75;;;;;;;3.53;100.00;103150.59;1019567;29;20291;-75
2022/01/15 02:32:19;;;;;;;47.05;27.15;;;;;;;3.55;100.00;103151.31;1019483;29;20323;-76
2022/01/15 02:32:51;;;;;;;48.22;28.02;;;;;;;3.52;100.00;103148.91;1020598;28;20292;-76
2022/01/15 02:33:23;;;;;;;46.30;27.30;;;;;;;3.50;100.00;103149.03;1027562;28;20286;-75
2022/01/15 02:33:57;;;;;;;50.85;28.20;;;;;;;3.51;100.00;103147.25;1031444;28;20408;-76
2022/01/15 02:34:28;;;;;;;42.13;26.95;;;;;;;3.51;100.00;103149.88;1031420;28;20281;-76
2022/01/15 02:35:01;;;;;;;43.58;28.13;;;;;;;3.53;100.00;103147.97;1030966;28;20299;-76
2022/01/15 02:35:33;;;;;;;44.85;28.30;;;;;;;3.51;100.00;103142.81;1031502;28;20295;-76
2022/01/15 02:36:08;;;;;;;43.58;27.50;;;;;;;3.49;100.00;103143.88;1027290;28;20281;-77
2022/01/15 02:36:39;;;;;;;49.53;30.52;;;;;;;3.51;100.00;103147.25;1023307;29;20287;-76
2022/01/15 02:37:11;;;;;;;46.28;31.17;;;;;;;3.49;100.00;103143.88;1019354;29;20298;-76
2022/01/15 02:37:42;;;;;;;46.10;29.02;;;;;;;3.51;100.00;103147.25;1020216;29;20284;-77
2022/01/15 02:38:14;;;;;;;50.97;30.55;;;;;;;3.50;100.00;103140.28;1025785;28;20297;-75
2022/01/15 02:38:46;;;;;;;52.38;31.17;;;;;;;3.49;100.00;103139.44;1027608;28;20290;-75
2022/01/15 02:39:17;;;;;;;54.05;29.98;;;;;;;3.49;100.00;103143.88;1027619;28;20274;-76
2022/01/15 02:39:49;;;;;;;53.25;29.52;;;;;;;3.46;100.00;103146.75;1023887;28;20325;-75
2022/01/15 02:40:21;;;;;;;47.63;30.08;;;;;;;3.62;100.00;103145.50;1026470;28;20286;-76
2022/01/15 02:40:52;;;;;;;46.03;29.20;;;;;;;3.56;100.00;103151.25;1027191;28;20736;-75
2022/01/15 02:41:31;;;;;;;53.15;30.45;;;;;;;3.52;100.00;103144.50;1027552;28;20274;-75
2022/01/15 02:42:03;;;;;;;49.78;31.27;;;;;;;3.51;100.00;103141.97;1027309;28;20285;-76
2022/01/15 02:42:35;;;;;;;55.58;31.45;;;;;;;3.49;100.00;103143.88;1027481;28;20430;-76
2022/01/15 02:43:10;;;;;;;58.10;30.45;;;;;;;3.50;100.00;103142.94;1027614;28;20274;-76
2022/01/15 02:43:42;;;;;;;52.60;30.60;;;;;;;3.49;100.00;103143.88;1027824;28;20285;-77
2022/01/15 02:44:19;;;;;;;54.90;30.23;;;;;;;3.48;100.00;103136.94;1020776;29;20362;-77
2022/01/15 02:44:58;;;;;;;45.40;27.23;;;;;;;3.49;100.00;103138.63;1020953;29;20345;-77
2022/01/15 02:45:33;;;;;;;49.72;29.95;;;;;;;3.50;100.00;103135.88;1023129;28;20358;-75
2022/01/15 02:46:21;;;;;;;50.22;29.70;;;;;;;3.49;100.00;103133.34;1027435;28;20646;-76
2022/01/15 02:48:18;;;;;;;43.35;27.20;;;;;;;3.47;100.00;103129.97;1024808;29;20763;-76
2022/01/15 02:48:54;;;;;;;42.60;27.35;;;;;;;3.48;100.00;103127.22;1024609;29;20652;-78
2022/01/15 02:49:25;;;;;;;48.05;27.20;;;;;;;3.49;100.00;103128.91;1024881;29;20290;-78
2022/01/15 02:49:57;;;;;;;44.30;27.70;;;;;;;3.49;100.00;103128.06;1024610;29;20295;-77
2022/01/15 02:50:29;;;;;;;53.38;30.40;;;;;;;3.47;100.00;103129.97;1021974;29;20282;-77
2022/01/15 02:51:01;;;;;;;53.50;30.20;;;;;;;3.48;100.00;103131.66;1024414;28;20275;-78
2022/01/15 02:51:35;;;;;;;55.63;29.02;;;;;;;3.46;100.00;103123.03;1024894;29;20282;-78